createdAt,value
2019-03-21T18:04:36.158Z,55.02
2019-03-21T18:07:06.496Z,54.90
2019-03-21T18:09:37.362Z,54.78
2019-03-21T18:12:11.328Z,54.42
2019-03-21T18:14:56.862Z,54.73
2019-03-21T18:17:19.608Z,54.97
2019-03-21T18:19:49.900Z,54.89
2019-03-21T18:22:29.896Z,54.50
2019-03-21T18:25:14.219Z,54.62
2019-03-21T18:27:44.654Z,54.56
2019-03-21T18:30:14.851Z,54.78
2019-03-21T18:32:45.137Z,55.24
2019-03-21T18:35:18.576Z,55.71
2019-03-21T18:38:11.781Z,56.59
2019-03-21T18:40:43.949Z,56.96
2019-03-21T18:43:14.088Z,57.47
2019-03-21T18:45:44.521Z,57.69
2019-03-21T18:48:14.914Z,57.79
2019-03-21T18:50:45.291Z,58.21
2019-03-21T18:53:15.528Z,58.61
2019-03-21T18:55:45.735Z,58.65
2019-03-21T18:58:16.075Z,58.99
2019-03-21T19:00:46.407Z,58.44
2019-03-21T19:03:16.719Z,58.49
2019-03-21T19:05:47.048Z,58.35
2019-03-21T19:08:18.300Z,58.14
2019-03-21T19:10:48.869Z,58.36
2019-03-21T19:13:19.233Z,58.48
2019-03-21T19:15:50.568Z,58.32
2019-03-21T19:21:12.321Z,58.56
2019-03-21T19:23:42.716Z,58.23
2019-03-21T19:26:16.049Z,58.38
2019-03-21T19:28:46.254Z,58.25
2019-03-21T19:31:16.780Z,57.69
2019-03-21T19:33:47.812Z,55.91
2019-03-21T19:36:18.071Z,55.86
2019-03-21T19:38:48.389Z,55.00
2019-03-21T19:41:18.556Z,55.18
2019-03-21T19:43:49.991Z,55.03
2019-03-21T19:46:23.209Z,55.03
2019-03-21T19:48:53.385Z,54.34
2019-03-21T19:51:25.526Z,54.39
2019-03-21T19:53:55.720Z,54.27
2019-03-21T19:56:25.942Z,54.61
2019-03-21T19:59:01.069Z,54.23
2019-03-21T20:01:40.392Z,54.46
2019-03-21T20:04:10.717Z,54.79
2019-03-21T20:06:41.178Z,54.44
2019-03-21T20:09:11.489Z,54.53
2019-03-21T20:11:41.804Z,54.21
2019-03-21T20:16:53.738Z,54.08
2019-03-21T20:19:51.233Z,54.51
2019-03-21T20:28:50.473Z,55.22
2019-03-21T20:34:33.277Z,55.26
2019-03-21T20:37:03.494Z,55.26
2019-03-21T20:39:33.864Z,55.39
2019-03-21T20:42:04.143Z,55.77
2019-03-21T20:44:37.609Z,55.78
2019-03-21T20:47:07.857Z,55.20
2019-03-21T20:49:40.202Z,55.98
2019-03-21T20:52:30.350Z,55.66
2019-03-21T20:57:56.326Z,56.02
2019-03-21T21:00:26.667Z,56.31
2019-03-21T21:02:56.987Z,56.81
2019-03-21T21:05:27.249Z,56.58
2019-03-21T21:07:57.579Z,57.10
2019-03-21T21:10:28.967Z,57.49
2019-03-21T21:12:59.245Z,57.68
2019-03-21T21:15:29.444Z,57.98
2019-03-21T21:17:59.606Z,58.13
2019-03-21T21:20:30.037Z,57.86
2019-03-21T21:23:00.280Z,57.96
2019-03-21T21:25:34.296Z,58.10
2019-03-21T21:28:04.561Z,58.42
2019-03-21T21:30:34.814Z,57.79
2019-03-21T21:33:06.596Z,57.78
2019-03-21T21:35:38.478Z,57.59
2019-03-21T21:38:08.764Z,57.51
2019-03-21T21:40:39.015Z,57.76
2019-03-21T21:43:09.652Z,57.89
2019-03-21T21:45:39.872Z,57.83
2019-03-21T21:48:10.110Z,57.72
2019-03-21T21:50:40.233Z,57.63
2019-03-21T21:53:10.452Z,58.09
2019-03-21T21:55:40.699Z,58.04
2019-03-21T21:58:10.826Z,58.12
2019-03-21T22:00:41.122Z,57.97
2019-03-21T22:03:11.336Z,57.73
2019-03-21T22:05:41.421Z,57.75
2019-03-21T22:08:11.571Z,57.84
2019-03-21T22:10:41.813Z,57.09
2019-03-21T22:13:11.939Z,57.25
2019-03-21T22:15:42.119Z,56.32
2019-03-21T22:18:12.226Z,56.59
2019-03-21T22:20:42.488Z,56.00
2019-03-21T22:23:12.589Z,55.11
2019-03-21T22:25:42.694Z,55.31
2019-03-21T22:28:12.844Z,55.21
2019-03-21T22:30:42.956Z,55.96
2019-03-21T22:33:13.219Z,56.02
2019-03-21T22:35:43.427Z,56.37
2019-03-21T22:38:13.555Z,57.11
2019-03-21T22:40:44.741Z,56.72
2019-03-21T22:43:14.877Z,56.78
2019-03-21T22:45:45.215Z,56.67
2019-03-21T22:48:15.375Z,56.82
2019-03-21T22:50:45.556Z,57.82
2019-03-21T22:53:15.757Z,59.07
2019-03-21T22:55:46.317Z,59.83
2019-03-21T22:58:16.395Z,60.46
2019-03-21T23:00:50.231Z,60.83
2019-03-21T23:03:20.693Z,61.30
2019-03-21T23:05:50.929Z,62.23
2019-03-21T23:08:21.107Z,62.36
2019-03-21T23:10:51.316Z,62.06
2019-03-21T23:13:21.524Z,62.44
2019-03-21T23:15:51.887Z,62.74
2019-03-21T23:18:21.975Z,62.98
2019-03-21T23:20:52.203Z,63.18
2019-03-21T23:23:22.512Z,63.59
2019-03-21T23:25:53.797Z,63.45
2019-03-21T23:28:24.079Z,64.34
2019-03-21T23:30:54.339Z,64.37
2019-03-21T23:33:24.793Z,65.16
2019-03-21T23:35:55.121Z,64.73
2019-03-21T23:38:26.483Z,65.01
2019-03-21T23:40:57.893Z,65.45
2019-03-21T23:43:28.051Z,65.11
2019-03-21T23:45:58.359Z,65.23
2019-03-21T23:48:28.612Z,65.44
2019-03-21T23:50:58.820Z,65.50
2019-03-21T23:53:29.104Z,66.20
2019-03-21T23:55:59.306Z,65.85
2019-03-21T23:58:29.487Z,65.83
